ADDS TAF Board (Experimental) INFO Settings

IDs: Format: Expanded Condensed

KCLT - Charlotte/Douglas In, NC, US

Issued at 1733 UTC 27 Mar 2015
Updated at: 2053 UTC 27 Mar 2015
Time1952Z 27/21Z 27/22Z 27/23Z 28/00Z 28/01Z 28/02Z 28/03Z 28/04Z 28/05Z 28/06Z 28/07Z 28/08Z 28/09Z
Type OBS PRVL PRVL PRVL PRVL PRVL PRVL PRVL PRVL PRVL PRVL PRVL PRVL PRVL
VIS 10 >6 >6 >6 >6 >6 >6 >6 >6 >6 >6 >6 >6 >6
CIG 41 25 40 40 40 40 40 40 60 60 60 60 60 --
Cover OVC OVC OVC OVC OVC OVC OVC OVC BKN BKN BKN BKN BKN SCT
FltCat VFR MVFR VFR VFR VFR VFR VFR VFR VFR VFR VFR VFR VFR VFR
WX -- -- -- -- -- -- -- -- -- -- -- -- -- --
WDir 30 10 10 10 10 10 10 10 320 320 320 320 320 330
WSpd 10 10 8 8 8 8 8 8 5 5 5 5 5 6
WGst -- 17 -- -- -- -- -- -- -- -- -- -- -- --
R05/23
XWnd 3 6 5 5 5 5 5 5 5 5 5 5 5 6
XGst -- 10 -- -- -- -- -- -- -- -- -- -- -- --
HWnd 10 8 6 6 6 6 6 6 0 0 0 0 0 1
HGst -- 13 -- -- -- -- -- -- -- -- -- -- -- --
R18/36
XWnd 6 2 2 2 2 2 2 2 -3 -3 -3 -3 -3 -3
XGst -- 4 -- -- -- -- -- -- -- -- -- -- -- --
HWnd -8 -10 -8 -8 -8 -8 -8 -8 -4 -4 -4 -4 -4 -5
HGst -- -16 -- -- -- -- -- -- -- -- -- -- -- --

NOTE: TEMPO conditions in [brackets]. Keep in mind TEMPO conditions might be better (lower impact) than prevailing conditions.

Raw TAF
KCLT 271733Z 2718/2818 01010G17KT P6SM OVC025
  FM272200 01008KT P6SM OVC040
  FM280400 32005KT P6SM BKN060
  FM280900 33006KT P6SM SCT250
  FM281500 33010KT P6SM FEW035


Raw METAR
KCLT 271952Z 03010KT 10SM FEW020 OVC041 09/03 A2977 RMK AO2 RAE07B32E52 SLP078 P0000 T00890033
KCLT 271852Z 02015G20KT 10SM -RA OVC046 09/03 A2976 RMK AO2 RAB45 SLP076 P0000 T00940028
KCLT 271752Z 01015G21KT 10SM OVC034 08/03 A2978 RMK AO2 RAB35E49 SLP080 P0000 60023 T00830033 10100 20083 55001

METAR Board
Radar Display
Forecast Discussion

TAF Board Legend

Potential Impact
Threat None Slight Moderate High
Visibility (sm) ≥5.1 5.1>X≥3 3>X≥1 <1
Ceiling (100 ft) ≥30.1 30.1>X≥10 10>X≥5 <5
Wind Speed (kt) <10 10≤X<20 20≤X<30 ≥30
Wind Gust (kt) <15 15≤X<25 25≤X<35 ≥35
Weather No Wx Reported VCTS,-TS,-FZRA,SN TS,FZRA +TS,+FZRA,+SN